Погода Миратинона 2 недели

Могилёвская область, Белоруссия

24 мая-06 июня
  • 24мая
    Сегодня
    +11°
    +25°
    Практически безоблачно
    ВремяПогодаТемператураВлажностьДавлениеВетер, м/сВероятность осадков
    00:00Ясно и безоблачно+15°C54 %756 мм1.6 м/с2 %
    03:00Ясно и безоблачно+13°C57 %757 мм1.6 м/с2 %
    06:00Практически безоблачно+12°C58 %757 мм1.8 м/с2 %
    09:00Ясно и безоблачно+17°C56 %758 мм2.8 м/с2 %
    12:00Ясно и безоблачно+21°C51 %759 мм3.1 м/с2 %
    15:00Практически безоблачно+24°C46 %758 мм3.9 м/с2 %
    18:00Ясно и безоблачно+23°C46 %757 мм3.5 м/с2 %
    21:00Ясно и безоблачно+18°C55 %758 мм1.1 м/с2 %
  • 25мая
    Суббота
    +9°
    +25°
    Небольшая облачность
    ВремяПогодаТемператураВлажностьДавлениеВетер, м/сВероятность осадков
    00:00Практически безоблачно+14°C58 %758 мм1.3 м/с2 %
    03:00Ясно и безоблачно+12°C63 %758 мм1.3 м/с2 %
    06:00Ясно и безоблачно+12°C68 %758 мм1.4 м/с2 %
    09:00Практически безоблачно+18°C56 %758 мм2.2 м/с2 %
    12:00Практически безоблачно+23°C43 %758 мм2.8 м/с2 %
    15:00Небольшая облачность+25°C35 %757 мм3.5 м/с2 %
    18:00Практически безоблачно+24°C35 %756 мм3.4 м/с2 %
    21:00Облачно с прояснениями+17°C50 %756 мм0.4 м/с2 %
  • 26мая
    Воскресенье
    +10°
    +25°
    Небольшая облачность
    ВремяПогодаТемператураВлажностьДавлениеВетер, м/сВероятность осадков
    00:00Облачно с прояснениями+13°C61 %756 мм0.5 м/с2 %
    03:00Ясно и безоблачно+10°C72 %756 мм0.4 м/с2 %
    06:00Ясно и безоблачно+11°C77 %756 мм0.5 м/с2 %
    09:00Ясно и безоблачно+18°C52 %757 мм0.8 м/с2 %
    12:00Практически безоблачно+23°C32 %757 мм2.4 м/с2 %
    15:00Небольшая облачность+24°C33 %757 мм2.4 м/с2 %
    18:00Ясно и безоблачно+24°C33 %756 мм2.7 м/с2 %
    21:00Ясно и безоблачно+17°C60 %756 мм0.0 м/с2 %
  • 27мая
    Понедельник
    +12°
    +27°
    Практически безоблачно
    ВремяПогодаТемператураВлажностьДавлениеВетер, м/сВероятность осадков
    00:00Ясно и безоблачно+14°C50 %756 мм0.1 м/с2 %
    03:00Ясно и безоблачно+11°C77 %756 мм0.2 м/с2 %
    06:00Практически безоблачно+12°C71 %756 мм0.5 м/с2 %
    09:00Небольшая облачность+20°C55 %757 мм0.8 м/с2 %
    12:00Облачно с прояснениями+24°C35 %757 мм2.9 м/с2 %
    15:00Практически безоблачно+26°C34 %756 мм3.3 м/с2 %
    18:00Ясно и безоблачно+26°C36 %755 мм2.9 м/с10 %
    21:00Ясно и безоблачно+20°C56 %755 мм0.0 м/с4 %
  • 28мая
    Вторник
    +14°
    +28°
    Небольшая облачность
    ВремяПогодаТемператураВлажностьДавлениеВетер, м/сВероятность осадков
    00:00Ясно и безоблачно+15°C60 %755 мм0.1 м/с2 %
    03:00Ясно и безоблачно+14°C64 %755 мм0.2 м/с2 %
    06:00Ясно и безоблачно+13°C76 %755 мм0.8 м/с2 %
    09:00Ясно и безоблачно+19°C61 %755 мм1.3 м/с2 %
    12:00Практически безоблачно+25°C37 %755 мм2.9 м/с2 %
    15:00Небольшая облачность+28°C32 %754 мм3.1 м/с9 %
    18:00Практически безоблачно+26°C36 %753 мм2.4 м/с17 %
    21:00Практически безоблачно+21°C55 %753 мм0.0 м/с6 %
Мы используем cookies
Соглашаюсь